Time;durP1;ratioP1;P1;durP2;ratioP2;P2;SDS_P1;SDS_P2;PMS_P1;PMS_P2;Temp;Humidity;BMP_temperature;BMP_pressure;BME280_temperature;BME280_humidity;BME280_pressure;Samples;Min_cycle;Max_cycle;Signal;HPM_P1;HPM_P2
2021/07/18 00:00:04;;;;;;;;;;;;;;;24.39;65.37;99993.75;437135;118;922692;-74
2021/07/18 00:01:07;;;;;;;;;;;;;;;24.37;65.41;99991.28;438101;118;922651;-74
2021/07/18 00:02:10;;;;;;;;;;;;;;;24.36;65.47;99991.63;435763;118;923634;-74
2021/07/18 00:03:13;;;;;;;;;;;;;;;24.35;65.43;99990.80;435300;121;924974;-75
2021/07/18 00:04:17;;;;;;;;;;;;;;;24.35;65.41;99984.41;437524;118;922663;-74
2021/07/18 00:05:20;;;;;;;;;;;;;;;24.36;65.34;99989.66;439249;116;922686;-74
2021/07/18 00:06:23;;;;;;;;;;;;;;;24.35;65.37;99993.59;436747;119;921446;-75
2021/07/18 00:07:26;;;;;;;;;;;;;;;24.34;65.43;99991.11;439205;118;921890;-74
2021/07/18 00:08:30;;;;;;;;;;;;;;;24.34;65.43;99985.54;438940;118;921755;-75
2021/07/18 00:09:33;;;;;;;;;;;;;;;24.33;65.38;99984.72;438311;119;921495;-74
2021/07/18 00:10:36;;;;;;;;;;;;;;;24.34;65.26;99988.33;437421;118;921302;-74
2021/07/18 00:11:39;;;;;;;;;;;;;;;24.36;65.22;99988.84;436509;119;921532;-74
2021/07/18 00:12:43;;;;;;;;;;;;;;;24.36;65.21;99991.63;437299;118;921461;-74
2021/07/18 00:13:46;;;;;;;;;;;;;;;24.36;65.17;99986.88;436042;118;921641;-74
2021/07/18 00:14:49;;;;;;;;;;;;;;;24.33;65.17;99995.03;437738;119;921370;-74
2021/07/18 00:15:52;;;;;;;;;;;;;;;24.30;65.20;99990.12;436250;118;921448;-74
2021/07/18 00:16:56;;;;;;;;;;;;;;;24.27;65.29;99987.95;437664;118;921432;-74
2021/07/18 00:17:59;;;;;;;;;;;;;;;24.23;65.36;99987.78;437519;119;921469;-74
2021/07/18 00:19:03;;;;;;;;;;;;;;;24.22;65.39;99988.09;436893;118;921597;-75
2021/07/18 00:20:07;;;;;;;;;;;;;;;24.20;65.42;99988.44;436175;118;921412;-75
2021/07/18 00:21:11;;;;;;;;;;;;;;;24.18;65.47;99992.67;437117;118;921718;-75
2021/07/18 00:22:14;;;;;;;;;;;;;;;24.18;65.52;99987.92;437571;118;921484;-75
2021/07/18 00:23:17;;;;;;;;;;;;;;;24.18;65.52;99990.70;439987;118;921470;-74
2021/07/18 00:24:20;;;;;;;;;;;;;;;24.19;65.43;99991.53;438196;118;922678;-74
2021/07/18 00:25:24;;;;;;;;;;;;;;;24.19;65.41;99989.57;437511;118;922736;-75
2021/07/18 00:26:27;;;;;;;;;;;;;;;24.21;65.38;99984.48;437492;119;922665;-76
2021/07/18 00:27:30;;;;;;;;;;;;;;;24.21;65.29;99990.05;437952;118;922692;-74
2021/07/18 00:28:33;;;;;;;;;;;;;;;24.22;65.23;99988.92;435783;121;921490;-74
2021/07/18 00:29:36;;;;;;;;;;;;;;;24.22;65.13;99986.13;436609;118;924537;-76
2021/07/18 00:30:40;;;;;;;;;;;;;;;24.23;65.03;99986.95;437524;119;923164;-75
2021/07/18 00:31:43;;;;;;;;;;;;;;;24.23;64.95;99989.74;439092;117;922501;-75
2021/07/18 00:32:46;;;;;;;;;;;;;;;24.23;64.87;99986.95;437704;118;922701;-74
2021/07/18 00:33:49;;;;;;;;;;;;;;;24.22;64.88;99985.31;437141;118;922689;-74
2021/07/18 00:34:52;;;;;;;;;;;;;;;24.22;64.82;99985.31;438440;118;922593;-74
2021/07/18 00:35:55;;;;;;;;;;;;;;;24.20;64.85;99988.44;437656;118;922724;-73
2021/07/18 00:36:59;;;;;;;;;;;;;;;24.18;64.85;99982.34;436706;121;923312;-75
2021/07/18 00:38:02;;;;;;;;;;;;;;;24.16;64.93;99986.55;432333;120;923004;-75
2021/07/18 00:39:05;;;;;;;;;;;;;;;24.13;64.98;99985.24;432642;120;922767;-74
2021/07/18 00:40:09;;;;;;;;;;;;;;;24.10;65.09;99983.91;437167;119;922750;-73
2021/07/18 00:41:12;;;;;;;;;;;;;;;24.08;65.22;99979.81;436818;118;922862;-75
2021/07/18 00:42:16;;;;;;;;;;;;;;;24.07;65.24;99986.52;435818;119;922735;-75
2021/07/18 00:43:20;;;;;;;;;;;;;;;24.05;65.33;99989.61;435702;119;922625;-75
2021/07/18 00:44:23;;;;;;;;;;;;;;;24.04;65.41;99987.13;437878;118;922807;-76
2021/07/18 00:45:26;;;;;;;;;;;;;;;24.00;65.47;99981.39;437098;118;922814;-75
2021/07/18 00:46:29;;;;;;;;;;;;;;;23.98;65.53;99982.86;438208;118;922706;-74
2021/07/18 00:47:34;;;;;;;;;;;;;;;23.95;65.65;99984.31;438704;118;922713;-74
2021/07/18 00:48:38;;;;;;;;;;;;;;;23.92;65.79;99981.34;439535;119;922586;-74
2021/07/18 00:49:41;;;;;;;;;;;;;;;23.88;65.94;99988.67;438523;118;922960;-74
2021/07/18 00:50:45;;;;;;;;;;;;;;;23.84;66.17;99990.45;436640;119;924734;-75
2021/07/18 00:51:49;;;;;;;;;;;;;;;23.81;66.28;99993.88;437410;119;922699;-75
2021/07/18 00:52:52;;;;;;;;;;;;;;;23.78;66.37;99989.76;436626;120;923208;-76
2021/07/18 00:53:55;;;;;;;;;;;;;;;23.78;66.49;99994.50;436121;119;922638;-74
2021/07/18 00:54:59;;;;;;;;;;;;;;;23.78;66.55;99986.97;436581;119;922641;-75
2021/07/18 00:56:02;;;;;;;;;;;;;;;23.80;66.61;99992.23;438755;119;922930;-74
2021/07/18 00:57:06;;;;;;;;;;;;;;;23.79;66.62;99994.19;436329;120;923092;-75
2021/07/18 00:58:10;;;;;;;;;;;;;;;23.79;66.63;99988.63;437400;119;922762;-74
2021/07/18 00:59:13;;;;;;;;;;;;;;;23.79;66.67;99985.02;437012;120;921492;-74
2021/07/18 01:00:17;;;;;;;;;;;;;;;23.77;66.67;99990.06;435554;119;921933;-74
2021/07/18 01:01:21;;;;;;;;;;;;;;;23.76;66.74;99988.45;436524;119;921622;-74
2021/07/18 01:02:25;;;;;;;;;;;;;;;23.74;66.82;99990.71;438067;119;921470;-73
2021/07/18 01:03:28;;;;;;;;;;;;;;;23.71;66.90;99991.36;437676;119;921667;-74
2021/07/18 01:04:32;;;;;;;;;;;;;;;23.70;66.98;99993.31;437127;120;921542;-74
2021/07/18 01:05:35;;;;;;;;;;;;;;;23.68;67.09;99999.19;436569;117;922006;-74
2021/07/18 01:06:38;;;;;;;;;;;;;;;23.66;67.22;99995.89;436421;120;921520;-74
2021/07/18 01:07:41;;;;;;;;;;;;;;;23.65;67.31;100001.80;438447;119;921459;-74
2021/07/18 01:08:45;;;;;;;;;;;;;;;23.63;67.42;100001.28;436061;119;921259;-74
2021/07/18 01:09:48;;;;;;;;;;;;;;;23.62;67.53;100000.45;437121;119;921424;-74
2021/07/18 01:10:52;;;;;;;;;;;;;;;23.61;67.67;100001.58;437509;119;921445;-74
2021/07/18 01:11:55;;;;;;;;;;;;;;;23.61;67.70;100006.33;438367;119;921382;-74
2021/07/18 01:12:59;;;;;;;;;;;;;;;23.62;67.81;100005.19;436002;119;921440;-74
2021/07/18 01:14:04;;;;;;;;;;;;;;;23.64;67.87;100008.49;434363;119;921585;-73
2021/07/18 01:15:07;;;;;;;;;;;;;;;23.65;67.84;100005.38;436996;119;921660;-74
2021/07/18 01:16:11;;;;;;;;;;;;;;;23.67;67.86;100003.11;436481;120;921601;-75
2021/07/18 01:17:17;;;;;;;;;;;;;;;23.68;67.88;99999.19;435717;121;921985;-74
2021/07/18 01:18:20;;;;;;;;;;;;;;;23.68;67.89;99999.19;437556;119;921649;-74
2021/07/18 01:19:23;;;;;;;;;;;;;;;23.69;67.90;100009.20;435810;119;921539;-75
2021/07/18 01:20:27;;;;;;;;;;;;;;;23.69;67.91;100005.58;436282;119;921431;-75
2021/07/18 01:21:31;;;;;;;;;;;;;;;23.68;67.96;100004.76;436831;119;921540;-75
2021/07/18 01:22:34;;;;;;;;;;;;;;;23.67;68.01;100003.11;436271;119;921413;-74
2021/07/18 01:23:39;;;;;;;;;;;;;;;23.66;68.06;100007.02;436368;119;922762;-75
2021/07/18 01:24:43;;;;;;;;;;;;;;;23.66;68.11;100012.59;437768;119;922652;-74
2021/07/18 01:25:52;;;;;;;;;;;;;;;23.68;68.16;100010.33;436173;118;922689;-75
2021/07/18 01:26:52;;;;;;;;;;;;;;;23.69;68.14;100006.41;438005;119;923206;-74
2021/07/18 01:27:55;;;;;;;;;;;;;;;23.71;68.10;100010.84;437804;119;921580;-75
2021/07/18 01:28:59;;;;;;;;;;;;;;;23.72;68.04;100015.25;438208;120;921622;-75
2021/07/18 01:30:04;;;;;;;;;;;;;;;23.73;68.00;100011.33;436762;119;923879;-73
2021/07/18 01:31:07;;;;;;;;;;;;;;;23.74;67.98;100010.20;436508;119;923353;-75
2021/07/18 01:32:11;;;;;;;;;;;;;;;23.74;67.91;100008.23;438077;119;922726;-74
2021/07/18 01:33:14;;;;;;;;;;;;;;;23.74;67.88;100011.02;437696;119;922468;-73
2021/07/18 01:34:17;;;;;;;;;;;;;;;23.74;67.88;100010.20;435886;119;921450;-74
2021/07/18 01:35:21;;;;;;;;;;;;;;;23.71;67.85;100011.64;436621;117;922654;-74
2021/07/18 01:36:24;;;;;;;;;;;;;;;23.68;67.89;100015.06;437807;120;922698;-73
2021/07/18 01:37:27;;;;;;;;;;;;;;;23.65;67.95;100008.16;437351;119;922633;-74
2021/07/18 01:38:31;;;;;;;;;;;;;;;23.62;67.99;100014.37;435989;119;922730;-74
2021/07/18 01:39:34;;;;;;;;;;;;;;;23.60;68.02;100013.02;436038;119;922605;-74
2021/07/18 01:40:37;;;;;;;;;;;;;;;23.58;68.09;100013.36;436822;120;922658;-75
2021/07/18 01:41:41;;;;;;;;;;;;;;;23.55;68.12;100002.84;437197;119;922694;-74
2021/07/18 01:42:45;;;;;;;;;;;;;;;23.54;68.09;100012.32;436852;120;922679;-75
2021/07/18 01:43:48;;;;;;;;;;;;;;;23.53;68.08;100007.09;434982;119;922749;-74
2021/07/18 01:44:51;;;;;;;;;;;;;;;23.50;68.10;100008.53;436118;119;921503;-75
2021/07/18 01:45:55;;;;;;;;;;;;;;;23.49;68.13;100012.44;437535;119;922801;-74
2021/07/18 01:46:58;;;;;;;;;;;;;;;23.47;68.15;100011.95;435514;119;922696;-74
2021/07/18 01:48:01;;;;;;;;;;;;;;;23.46;68.15;100004.73;436690;119;922707;-74
2021/07/18 01:49:06;;;;;;;;;;;;;;;23.44;68.12;100014.48;439262;119;922533;-74
2021/07/18 01:50:10;;;;;;;;;;;;;;;23.43;68.12;100012.87;438028;119;923153;-74
2021/07/18 01:51:15;;;;;;;;;;;;;;;23.41;68.13;100010.39;436785;118;922650;-75
2021/07/18 01:52:19;;;;;;;;;;;;;;;23.40;68.16;100011.52;436559;119;922536;-74
2021/07/18 01:53:22;;;;;;;;;;;;;;;23.38;68.19;100011.00;437057;118;922465;-74
2021/07/18 01:54:25;;;;;;;;;;;;;;;23.38;68.24;100019.34;438946;119;922734;-73
2021/07/18 01:55:28;;;;;;;;;;;;;;;23.37;68.30;100026.08;437741;119;922678;-73
2021/07/18 01:56:32;;;;;;;;;;;;;;;23.38;68.36;100013.78;435554;121;922637;-74
2021/07/18 01:57:35;;;;;;;;;;;;;;;23.40;68.38;100013.48;437390;116;922484;-73
2021/07/18 01:58:39;;;;;;;;;;;;;;;23.41;68.37;100015.12;437207;119;922554;-73
2021/07/18 01:59:42;;;;;;;;;;;;;;;23.42;68.37;100009.26;436730;118;922741;-74
2021/07/18 02:00:45;;;;;;;;;;;;;;;23.43;68.30;100005.31;436212;118;923831;-74
2021/07/18 02:01:49;;;;;;;;;;;;;;;23.44;68.27;99995.84;436817;118;923188;-74
2021/07/18 02:02:53;;;;;;;;;;;;;;;23.45;68.26;100007.80;436163;118;922527;-74
2021/07/18 02:03:56;;;;;;;;;;;;;;;23.45;68.24;100007.80;437869;118;921547;-74
2021/07/18 02:05:00;;;;;;;;;;;;;;;23.46;68.23;100006.70;437899;118;921542;-74
2021/07/18 02:06:04;;;;;;;;;;;;;;;23.47;68.20;100005.56;438294;116;921709;-74
2021/07/18 02:07:07;;;;;;;;;;;;;;;23.49;68.20;100008.83;438042;119;921694;-73
2021/07/18 02:08:10;;;;;;;;;;;;;;;23.51;68.11;100004.61;437841;119;921463;-74
2021/07/18 02:09:13;;;;;;;;;;;;;;;23.55;68.05;100010.36;437691;118;921572;-73
2021/07/18 02:10:18;;;;;;;;;;;;;;;23.57;67.94;100008.09;436444;118;921975;-73
2021/07/18 02:11:22;;;;;;;;;;;;;;;23.58;67.84;100004.19;438585;119;921414;-73
2021/07/18 02:12:25;;;;;;;;;;;;;;;23.57;67.86;100006.14;438192;118;921500;-73
2021/07/18 02:13:28;;;;;;;;;;;;;;;23.57;67.87;100008.92;437808;118;921583;-74
2021/07/18 02:14:33;;;;;;;;;;;;;;;23.54;67.91;100009.54;437408;118;921834;-74
2021/07/18 02:15:36;;;;;;;;;;;;;;;23.54;67.99;100009.54;437384;118;921443;-74
2021/07/18 02:16:39;;;;;;;;;;;;;;;23.54;68.04;100017.89;437269;119;921424;-73
2021/07/18 02:17:42;;;;;;;;;;;;;;;23.54;68.05;100015.10;436863;119;921525;-75
2021/07/18 02:18:46;;;;;;;;;;;;;;;23.53;68.12;100013.48;437082;118;921528;-73
2021/07/18 02:19:49;;;;;;;;;;;;;;;23.53;68.14;100013.48;436781;118;921430;-73
2021/07/18 02:20:55;;;;;;;;;;;;;;;23.55;68.15;100004.80;437162;118;921442;-73
2021/07/18 02:21:59;;;;;;;;;;;;;;;23.56;68.10;100010.06;437400;119;921571;-73
2021/07/18 02:23:04;;;;;;;;;;;;;;;23.56;68.05;100012.84;437598;118;922647;-74
2021/07/18 02:24:07;;;;;;;;;;;;;;;23.55;68.13;100013.97;433301;120;922738;-74
2021/07/18 02:25:11;;;;;;;;;;;;;;;23.57;68.08;100008.92;433541;120;922667;-74
2021/07/18 02:26:14;;;;;;;;;;;;;;;23.58;68.03;100012.53;437568;118;922753;-74
2021/07/18 02:27:17;;;;;;;;;;;;;;;23.58;68.01;100009.75;435761;119;922689;-73
2021/07/18 02:28:21;;;;;;;;;;;;;;;23.57;67.95;100008.92;438114;118;922726;-73
2021/07/18 02:29:24;;;;;;;;;;;;;;;23.58;67.82;100009.75;439286;118;923122;-73
2021/07/18 02:30:29;;;;;;;;;;;;;;;23.57;67.74;100008.09;435717;121;922442;-73
2021/07/18 02:31:32;;;;;;;;;;;;;;;23.56;67.65;100010.06;438811;116;922664;-73
2021/07/18 02:32:36;;;;;;;;;;;;;;;23.55;67.58;100013.97;439824;118;922757;-73
2021/07/18 02:33:39;;;;;;;;;;;;;;;23.53;67.60;100013.48;438406;118;923132;-72
2021/07/18 02:34:42;;;;;;;;;;;;;;;23.52;67.62;100011.00;435291;121;922675;-74
2021/07/18 02:35:45;;;;;;;;;;;;;;;23.50;67.60;100008.53;436952;118;923143;-73
2021/07/18 02:36:49;;;;;;;;;;;;;;;23.49;67.64;100009.66;436920;118;922702;-73
2021/07/18 02:37:53;;;;;;;;;;;;;;;23.49;67.67;100006.87;439075;118;923525;-74
2021/07/18 02:38:56;;;;;;;;;;;;;;;23.49;67.76;100003.27;436373;119;922712;-74
2021/07/18 02:40:00;;;;;;;;;;;;;;;23.50;67.73;100004.92;438792;118;922691;-74
2021/07/18 02:41:04;;;;;;;;;;;;;;;23.51;67.72;100001.01;437797;118;922804;-74
2021/07/18 02:42:08;;;;;;;;;;;;;;;23.50;67.72;100008.53;437625;119;922717;-73
2021/07/18 02:43:11;;;;;;;;;;;;;;;23.50;67.76;100010.48;432896;121;922717;-74
2021/07/18 02:44:15;;;;;;;;;;;;;;;23.50;67.83;100016.05;432240;120;922987;-74
2021/07/18 02:45:19;;;;;;;;;;;;;;;23.51;67.89;100018.53;436003;118;923116;-74
2021/07/18 02:46:23;;;;;;;;;;;;;;;23.53;67.88;100013.48;438744;118;923217;-73
2021/07/18 02:47:26;;;;;;;;;;;;;;;23.55;67.83;100022.32;437586;118;921493;-73
2021/07/18 02:48:29;;;;;;;;;;;;;;;23.55;67.85;100022.32;437460;119;922759;-74
2021/07/18 02:49:32;;;;;;;;;;;;;;;23.56;67.78;100018.41;437667;118;922704;-73
2021/07/18 02:50:35;;;;;;;;;;;;;;;23.55;67.81;100022.32;437501;119;922734;-74
2021/07/18 02:51:38;;;;;;;;;;;;;;;23.54;67.85;100026.23;436449;117;922803;-72
2021/07/18 02:52:42;;;;;;;;;;;;;;;23.53;67.85;100027.40;437915;119;923134;-74
2021/07/18 02:53:45;;;;;;;;;;;;;;;23.52;67.92;100025.75;437361;119;922607;-74
2021/07/18 02:54:50;;;;;;;;;;;;;;;23.52;67.99;100022.96;437981;119;921556;-73
2021/07/18 02:55:53;;;;;;;;;;;;;;;23.51;68.04;100015.75;436930;119;922679;-73
2021/07/18 02:56:56;;;;;;;;;;;;;;;23.52;68.13;100028.53;438853;117;922697;-73
2021/07/18 02:58:00;;;;;;;;;;;;;;;23.56;68.18;100032.32;435941;119;922660;-74
2021/07/18 02:59:03;;;;;;;;;;;;;;;23.58;68.21;100027.28;436007;119;922696;-75
2021/07/18 03:00:07;;;;;;;;;;;;;;;23.61;68.22;100032.20;434956;119;922771;-74
2021/07/18 03:01:10;;;;;;;;;;;;;;;23.63;68.19;100038.28;438116;119;922657;-73
2021/07/18 03:02:14;;;;;;;;;;;;;;;23.65;68.13;100032.41;436377;119;923180;-73
2021/07/18 03:03:19;;;;;;;;;;;;;;;23.66;68.08;100028.47;436885;119;922706;-73
2021/07/18 03:04:22;;;;;;;;;;;;;;;23.67;67.99;100030.94;437347;120;922442;-74
2021/07/18 03:05:25;;;;;;;;;;;;;;;23.68;67.87;100031.77;436448;119;922698;-73
2021/07/18 03:06:29;;;;;;;;;;;;;;;23.68;67.94;100031.77;437372;119;922836;-73
2021/07/18 03:07:32;;;;;;;;;;;;;;;23.69;67.88;100036.20;436950;119;922645;-73
2021/07/18 03:08:35;;;;;;;;;;;;;;;23.72;67.85;100037.52;436809;119;921531;-73
2021/07/18 03:09:38;;;;;;;;;;;;;;;23.75;67.83;100036.91;436417;119;921426;-73
2021/07/18 03:10:42;;;;;;;;;;;;;;;23.78;67.76;100037.09;438232;119;921474;-73
2021/07/18 03:11:45;;;;;;;;;;;;;;;23.81;67.64;100030.08;439150;119;921534;-73
2021/07/18 03:12:48;;;;;;;;;;;;;;;23.84;67.58;100027.47;440015;119;921430;-73
2021/07/18 03:13:52;;;;;;;;;;;;;;;23.85;67.52;100031.08;435754;119;921579;-74
2021/07/18 03:14:55;;;;;;;;;;;;;;;23.86;67.43;100032.73;438002;119;921621;-73
2021/07/18 03:15:58;;;;;;;;;;;;;;;23.89;67.45;100032.91;437041;119;921600;-73
2021/07/18 03:17:02;;;;;;;;;;;;;;;23.90;67.38;100025.39;424923;122;921587;-73
2021/07/18 03:18:06;;;;;;;;;;;;;;;23.91;67.40;100024.25;432356;120;921503;-73
2021/07/18 03:19:11;;;;;;;;;;;;;;;23.92;67.36;100023.12;431385;120;922650;-73
2021/07/18 03:20:15;;;;;;;;;;;;;;;23.93;67.33;100028.34;432047;122;922734;-74
2021/07/18 03:21:18;;;;;;;;;;;;;;;23.93;67.24;100028.34;432207;120;922727;-72
2021/07/18 03:22:22;;;;;;;;;;;;;;;23.94;67.22;100023.61;430891;122;923211;-72
2021/07/18 03:23:25;;;;;;;;;;;;;;;23.95;67.23;100020.52;431363;120;923666;-73
2021/07/18 03:24:28;;;;;;;;;;;;;;;23.96;67.25;100021.34;431789;120;922686;-73
2021/07/18 03:25:31;;;;;;;;;;;;;;;23.97;67.24;100022.98;431883;120;922636;-74
2021/07/18 03:26:35;;;;;;;;;;;;;;;23.97;67.18;100020.20;430545;122;923996;-72
2021/07/18 03:27:38;;;;;;;;;;;;;;;23.98;67.11;100019.07;430972;120;922885;-72
2021/07/18 03:28:42;;;;;;;;;;;;;;;23.99;67.04;100017.91;430652;120;922700;-71
2021/07/18 03:29:45;;;;;;;;;;;;;;;23.98;67.00;100024.64;430934;120;922793;-77
2021/07/18 03:30:49;;;;;;;;;;;;;;;23.99;67.01;100015.12;431446;120;922754;-73
2021/07/18 03:31:53;;;;;;;;;;;;;;;24.01;67.02;100023.99;430932;122;924421;-72
2021/07/18 03:32:56;;;;;;;;;;;;;;;24.02;67.01;100026.47;431955;120;922685;-73
2021/07/18 03:33:59;;;;;;;;;;;;;;;24.03;67.01;100018.94;432870;122;922675;-73
2021/07/18 03:35:03;;;;;;;;;;;;;;;24.03;66.95;100019.77;432741;120;922751;-73
2021/07/18 03:36:08;;;;;;;;;;;;;;;24.06;67.00;100009.93;431208;120;922714;-73
2021/07/18 03:37:12;;;;;;;;;;;;;;;24.06;67.03;100016.33;432911;120;922695;-74
2021/07/18 03:38:15;;;;;;;;;;;;;;;24.09;67.03;100009.31;432645;121;923189;-73
2021/07/18 03:39:18;;;;;;;;;;;;;;;24.10;67.11;100010.93;431297;122;922702;-75
2021/07/18 03:40:21;;;;;;;;;;;;;;;24.13;67.15;100015.88;431215;121;922727;-72
2021/07/18 03:41:25;;;;;;;;;;;;;;;24.14;67.14;100011.96;430882;120;923219;-74
2021/07/18 03:42:28;;;;;;;;;;;;;;;24.17;67.20;100004.91;432195;120;922920;-73
2021/07/18 03:43:31;;;;;;;;;;;;;;;24.19;67.10;100017.42;431140;120;922774;-73
2021/07/18 03:44:36;;;;;;;;;;;;;;;24.21;67.10;100017.09;431132;120;922305;-74
2021/07/18 03:45:40;;;;;;;;;;;;;;;24.22;67.14;100013.99;430952;120;923491;-73
2021/07/18 03:46:43;;;;;;;;;;;;;;;24.23;67.07;100014.81;431304;120;923654;-72
2021/07/18 03:47:46;;;;;;;;;;;;;;;24.23;67.05;100021.22;433530;120;924173;-74
2021/07/18 03:48:50;;;;;;;;;;;;;;;24.25;67.10;100018.94;431686;120;922702;-73
2021/07/18 03:49:53;;;;;;;;;;;;;;;24.25;67.10;100013.37;431403;120;922770;-72
2021/07/18 03:50:57;;;;;;;;;;;;;;;24.26;67.08;100019.77;431502;122;922724;-74
2021/07/18 03:52:00;;;;;;;;;;;;;;;24.27;67.08;100016.64;434349;119;922724;-72
2021/07/18 03:53:04;;;;;;;;;;;;;;;24.29;67.14;100019.94;441419;117;922719;-73
2021/07/18 03:54:07;;;;;;;;;;;;;;;24.29;67.19;100017.16;443494;117;922706;-73
2021/07/18 03:55:11;;;;;;;;;;;;;;;24.32;67.15;100024.86;443443;117;922722;-74
2021/07/18 03:56:17;;;;;;;;;;;;;;;24.36;67.09;100019.49;442945;119;921551;-74
2021/07/18 03:57:20;;;;;;;;;;;;;;;24.39;67.04;100018.84;441601;119;922995;-74
2021/07/18 03:58:23;;;;;;;;;;;;;;;24.42;66.98;100010.64;441956;117;922586;-74
2021/07/18 03:59:27;;;;;;;;;;;;;;;24.47;66.94;100023.64;442077;117;922669;-74
2021/07/18 04:00:30;;;;;;;;;;;;;;;24.49;66.95;100012.98;441564;118;922303;-73
2021/07/18 04:01:33;;;;;;;;;;;;;;;24.53;66.95;100015.97;440862;119;921448;-73
2021/07/18 04:02:37;;;;;;;;;;;;;;;24.53;66.95;100013.18;441036;117;922763;-74
2021/07/18 04:03:41;;;;;;;;;;;;;;;24.55;66.94;100022.02;442321;118;922637;-73
2021/07/18 04:04:44;;;;;;;;;;;;;;;24.56;66.87;100023.67;442845;117;922671;-72
2021/07/18 04:05:48;;;;;;;;;;;;;;;24.56;66.88;100021.71;441191;117;921473;-73
2021/07/18 04:06:51;;;;;;;;;;;;;;;24.59;66.94;100020.26;443242;117;921601;-74
2021/07/18 04:07:54;;;;;;;;;;;;;;;24.60;66.89;100019.91;442233;117;921697;-73
2021/07/18 04:08:57;;;;;;;;;;;;;;;24.64;66.82;100020.11;440595;117;921315;-73
2021/07/18 04:10:01;;;;;;;;;;;;;;;24.66;66.79;100017.80;434861;120;921377;-72
2021/07/18 04:11:04;;;;;;;;;;;;;;;24.69;66.80;100014.39;435937;117;921591;-73
2021/07/18 04:12:08;;;;;;;;;;;;;;;24.72;66.85;100013.73;436008;119;921516;-74
2021/07/18 04:13:11;;;;;;;;;;;;;;;24.74;66.80;100015.07;436243;119;921601;-75
2021/07/18 04:14:14;;;;;;;;;;;;;;;24.77;66.61;100010.80;423573;124;921459;-74
2021/07/18 04:15:18;;;;;;;;;;;;;;;24.79;66.46;100011.31;429643;119;921852;-75
2021/07/18 04:16:21;;;;;;;;;;;;;;;24.82;66.36;100011.47;442979;119;921550;-72
2021/07/18 04:17:24;;;;;;;;;;;;;;;24.85;66.32;100013.63;446222;117;922681;-73
2021/07/18 04:18:28;;;;;;;;;;;;;;;24.87;66.11;100011.32;443310;117;922820;-74
2021/07/18 04:19:31;;;;;;;;;;;;;;;24.91;65.99;100022.70;444246;117;922659;-74
2021/07/18 04:20:34;;;;;;;;;;;;;;;24.91;65.82;100005.97;443839;118;922670;-73
2021/07/18 04:21:38;;;;;;;;;;;;;;;24.93;65.85;100014.81;443180;117;922679;-73
2021/07/18 04:22:41;;;;;;;;;;;;;;;24.94;65.95;100013.67;444953;117;921763;-74
2021/07/18 04:23:45;;;;;;;;;;;;;;;24.96;65.90;100011.39;443771;117;922711;-73
2021/07/18 04:24:48;;;;;;;;;;;;;;;24.99;65.95;100015.48;442447;118;923649;-72
2021/07/18 04:25:51;;;;;;;;;;;;;;;25.01;65.95;100016.82;442337;117;922743;-73
2021/07/18 04:26:55;;;;;;;;;;;;;;;25.04;65.87;100013.37;441961;119;922908;-74
2021/07/18 04:27:58;;;;;;;;;;;;;;;25.06;65.84;100013.87;438396;119;922685;-74
2021/07/18 04:29:01;;;;;;;;;;;;;;;25.08;65.85;100016.35;442281;117;922556;-72
2021/07/18 04:30:05;;;;;;;;;;;;;;;25.11;65.78;100012.89;441885;117;922596;-75
2021/07/18 04:31:09;;;;;;;;;;;;;;;25.12;65.67;100012.58;435433;119;922764;-73
2021/07/18 04:32:12;;;;;;;;;;;;;;;25.15;65.66;100008.30;442235;117;921691;-74
2021/07/18 04:33:15;;;;;;;;;;;;;;;25.16;65.60;100007.16;442566;117;922700;-74
2021/07/18 04:34:18;;;;;;;;;;;;;;;25.18;65.62;100011.28;444638;117;922608;-73
2021/07/18 04:35:22;;;;;;;;;;;;;;;25.21;65.79;100007.83;441901;117;922693;-74
2021/07/18 04:36:25;;;;;;;;;;;;;;;25.23;65.85;100005.55;443828;117;922783;-73
2021/07/18 04:37:29;;;;;;;;;;;;;;;25.24;65.78;100001.61;443747;116;922643;-74
2021/07/18 04:38:33;;;;;;;;;;;;;;;25.27;65.73;100005.70;443570;117;923173;-72
2021/07/18 04:39:36;;;;;;;;;;;;;;;25.29;65.51;100004.24;445977;117;922689;-73
2021/07/18 04:40:39;;;;;;;;;;;;;;;25.32;65.54;100011.13;445579;119;923063;-72
2021/07/18 04:41:43;;;;;;;;;;;;;;;25.33;65.31;99999.64;442772;117;922669;-72
2021/07/18 04:42:46;;;;;;;;;;;;;;;25.37;65.21;100010.13;440682;118;922759;-72
2021/07/18 04:43:49;;;;;;;;;;;;;;;25.38;65.21;100004.23;436147;119;922731;-73
2021/07/18 04:44:52;;;;;;;;;;;;;;;25.40;65.25;100004.73;435457;120;922740;-74
2021/07/18 04:45:56;;;;;;;;;;;;;;;25.42;65.27;99998.81;435538;119;922814;-73
2021/07/18 04:46:59;;;;;;;;;;;;;;;25.44;65.23;99994.55;436769;119;922742;-72
2021/07/18 04:48:03;;;;;;;;;;;;;;;25.45;65.24;99996.20;436380;119;923208;-74
2021/07/18 04:49:06;;;;;;;;;;;;;;;25.48;65.11;99997.50;435435;119;922693;-72
2021/07/18 04:50:10;;;;;;;;;;;;;;;25.49;65.04;99997.18;435671;119;922715;-73
2021/07/18 04:51:13;;;;;;;;;;;;;;;25.52;65.00;99990.96;435409;121;922708;-73
2021/07/18 04:52:19;;;;;;;;;;;;;;;25.53;64.97;99992.58;435761;120;922805;-73
2021/07/18 04:53:23;;;;;;;;;;;;;;;25.55;64.88;99992.25;434403;121;924259;-74
2021/07/18 04:54:26;;;;;;;;;;;;;;;25.55;64.97;99990.29;436008;119;922726;-73
2021/07/18 04:55:29;;;;;;;;;;;;;;;25.57;65.02;99992.79;431723;121;923172;-73
2021/07/18 04:56:32;;;;;;;;;;;;;;;25.58;65.07;99997.23;429205;121;922727;-75
2021/07/18 04:57:35;;;;;;;;;;;;;;;25.59;65.10;99987.68;436932;119;922686;-73
2021/07/18 04:58:39;;;;;;;;;;;;;;;25.61;65.05;99988.19;435848;117;921456;-74
2021/07/18 04:59:42;;;;;;;;;;;;;;;25.62;65.04;99987.86;435489;119;921524;-72
2021/07/18 05:00:46;;;;;;;;;;;;;;;25.64;65.00;99985.55;434609;119;921697;-73
2021/07/18 05:01:49;;;;;;;;;;;;;;;25.65;65.02;99989.16;436955;119;921559;-74
2021/07/18 05:02:52;;;;;;;;;;;;;;;25.67;64.93;99998.86;436348;119;921559;-74
2021/07/18 05:03:56;;;;;;;;;;;;;;;25.69;64.86;99995.75;441002;119;921502;-73
2021/07/18 05:04:59;;;;;;;;;;;;;;;25.71;64.89;99994.25;434143;120;921536;-74
2021/07/18 05:06:05;;;;;;;;;;;;;;;25.73;64.87;99996.73;438942;120;921478;-74
2021/07/18 05:07:09;;;;;;;;;;;;;;;25.76;64.80;99996.05;439876;118;921420;-75
2021/07/18 05:08:13;;;;;;;;;;;;;;;25.79;64.86;99991.79;433548;120;921629;-74
2021/07/18 05:09:16;;;;;;;;;;;;;;;25.82;64.91;99993.91;440770;120;921502;-72
2021/07/18 05:10:21;;;;;;;;;;;;;;;25.85;64.85;99999.67;430588;120;922721;-75
2021/07/18 05:11:24;;;;;;;;;;;;;;;25.87;64.71;100002.94;439605;118;922579;-73
2021/07/18 05:12:27;;;;;;;;;;;;;;;25.89;64.67;100000.65;434269;120;922768;-74
2021/07/18 05:13:30;;;;;;;;;;;;;;;25.92;64.64;100002.77;434584;120;922644;-74
2021/07/18 05:14:34;;;;;;;;;;;;;;;25.95;64.60;100004.09;439891;118;922699;-76
2021/07/18 05:15:37;;;;;;;;;;;;;;;25.98;64.53;100003.41;438170;118;922638;-75
2021/07/18 05:16:41;;;;;;;;;;;;;;;26.00;64.47;100001.95;432543;120;922737;-74
2021/07/18 05:17:44;;;;;;;;;;;;;;;26.03;64.34;100006.86;433245;120;922687;-75
2021/07/18 05:18:47;;;;;;;;;;;;;;;26.06;64.28;100009.00;442444;120;924466;-74
2021/07/18 05:19:51;;;;;;;;;;;;;;;26.09;64.34;100001.91;432735;120;922772;-75
2021/07/18 05:20:54;;;;;;;;;;;;;;;26.11;64.36;99997.65;440635;118;922702;-75
2021/07/18 05:21:58;;;;;;;;;;;;;;;26.13;64.41;100009.30;432753;120;922720;-76
2021/07/18 05:23:02;;;;;;;;;;;;;;;26.16;64.40;99991.88;440670;119;922536;-76